createdAt,value
2023-03-29T00:01:42.563Z,8.40
2023-03-29T00:04:48.963Z,12.13
2023-03-29T00:07:54.926Z,15.43
2023-03-29T00:10:59.544Z,15.35
2023-03-29T00:14:02.718Z,11.18
2023-03-29T00:20:10.471Z,12.90
2023-03-29T00:23:13.493Z,20.83
2023-03-29T00:26:16.634Z,15.45
2023-03-29T00:29:19.477Z,12.65
2023-03-29T00:32:22.811Z,13.15
2023-03-29T00:35:25.901Z,12.18
2023-03-29T00:38:28.843Z,13.10
2023-03-29T00:41:31.921Z,11.00
2023-03-29T00:45:12.232Z,10.18
2023-03-29T00:48:21.825Z,10.98
2023-03-29T00:51:28.637Z,11.65
2023-03-29T00:54:33.135Z,12.57
2023-03-29T00:57:38.532Z,12.85
2023-03-29T01:00:47.649Z,16.62
2023-03-29T01:03:54.641Z,11.98
2023-03-29T01:07:01.470Z,12.68
2023-03-29T01:10:10.641Z,16.53
2023-03-29T01:13:28.400Z,18.80
2023-03-29T01:16:33.306Z,15.30
2023-03-29T01:19:44.681Z,23.80
2023-03-29T01:23:27.545Z,27.48
2023-03-29T01:26:37.561Z,25.63
2023-03-29T01:29:48.278Z,29.95
2023-03-29T01:33:06.406Z,25.95
2023-03-29T01:36:20.269Z,29.63
2023-03-29T01:39:23.115Z,27.73
2023-03-29T01:42:39.009Z,35.27
2023-03-29T01:45:59.426Z,31.70
2023-03-29T01:49:06.536Z,28.25
2023-03-29T01:52:23.512Z,32.38
2023-03-29T01:55:31.960Z,25.42
2023-03-29T01:58:39.114Z,28.07
2023-03-29T02:01:49.459Z,30.37
2023-03-29T02:04:54.702Z,32.85
2023-03-29T02:08:00.392Z,27.45
2023-03-29T02:11:04.777Z,36.30
2023-03-29T02:14:07.975Z,31.23
2023-03-29T02:17:19.225Z,34.88
2023-03-29T02:20:29.234Z,35.38
2023-03-29T02:23:41.529Z,33.42
2023-03-29T02:26:44.495Z,33.78
2023-03-29T02:29:48.103Z,36.13
2023-03-29T02:33:11.157Z,37.53
2023-03-29T02:36:50.768Z,32.90
2023-03-29T02:39:54.117Z,34.22
2023-03-29T02:42:57.929Z,39.65
2023-03-29T02:46:01.217Z,55.93
2023-03-29T02:49:05.374Z,47.28
2023-03-29T02:52:16.255Z,44.42
2023-03-29T02:55:20.472Z,35.33
2023-03-29T02:58:26.815Z,38.55
2023-03-29T03:01:29.660Z,39.47
2023-03-29T03:04:35.831Z,36.63
2023-03-29T03:07:40.764Z,36.22
2023-03-29T03:10:43.700Z,32.25
2023-03-29T03:13:46.404Z,31.40
2023-03-29T03:16:50.080Z,29.23
2023-03-29T03:19:53.445Z,28.38
2023-03-29T03:22:57.784Z,28.85
2023-03-29T03:26:00.722Z,30.62
2023-03-29T03:29:03.626Z,30.83
2023-03-29T03:32:06.858Z,27.77
2023-03-29T03:35:10.190Z,34.03
2023-03-29T03:38:13.288Z,22.90
2023-03-29T03:41:16.199Z,24.67
2023-03-29T03:44:19.866Z,25.08
2023-03-29T03:47:22.929Z,24.93
2023-03-29T03:50:25.852Z,25.37
2023-03-29T03:53:32.429Z,24.23
2023-03-29T03:56:35.370Z,23.08
2023-03-29T03:59:39.179Z,22.20
2023-03-29T04:02:42.106Z,19.63
2023-03-29T04:05:46.528Z,19.27
2023-03-29T04:08:49.303Z,19.20
2023-03-29T04:11:53.318Z,16.52
2023-03-29T04:14:56.992Z,19.23
2023-03-29T04:18:00.902Z,16.80
2023-03-29T04:21:04.446Z,17.20
2023-03-29T04:24:07.960Z,15.93
2023-03-29T04:27:11.068Z,16.62
2023-03-29T04:30:14.168Z,16.40
2023-03-29T04:33:17.647Z,19.27
2023-03-29T04:36:21.758Z,18.80
2023-03-29T04:39:32.240Z,17.23
2023-03-29T04:42:44.104Z,17.17
2023-03-29T04:45:49.758Z,17.52
2023-03-29T04:48:53.077Z,20.10
2023-03-29T04:51:56.225Z,14.75
2023-03-29T04:55:00.507Z,17.10
2023-03-29T04:58:03.421Z,16.62
2023-03-29T05:01:07.875Z,17.52
2023-03-29T05:04:12.658Z,19.27
2023-03-29T05:07:18.166Z,18.10
2023-03-29T05:10:21.349Z,14.87
2023-03-29T05:13:24.426Z,18.37
2023-03-29T05:16:31.113Z,19.92
2023-03-29T05:19:34.102Z,17.57
2023-03-29T05:22:38.573Z,17.45
2023-03-29T05:25:41.839Z,20.85
2023-03-29T05:28:44.896Z,17.58
2023-03-29T05:31:47.923Z,21.85
2023-03-29T05:34:50.879Z,25.10
2023-03-29T05:37:54.093Z,25.00
2023-03-29T05:40:57.931Z,27.48
2023-03-29T05:44:01.001Z,29.33
2023-03-29T05:47:03.758Z,34.03
2023-03-29T05:50:09.963Z,72.10
2023-03-29T05:53:12.821Z,67.18
2023-03-29T05:56:16.664Z,60.58
2023-03-29T05:59:19.969Z,53.05
2023-03-29T06:02:23.597Z,38.65
2023-03-29T06:05:26.777Z,39.50
2023-03-29T06:08:35.295Z,57.95
2023-03-29T06:11:38.326Z,39.97
2023-03-29T06:14:41.253Z,24.12
2023-03-29T06:17:47.557Z,23.12
2023-03-29T06:20:51.972Z,19.77
2023-03-29T06:23:54.819Z,18.73
2023-03-29T06:26:57.680Z,19.17
2023-03-29T06:30:01.362Z,27.73
2023-03-29T06:33:07.286Z,29.80
2023-03-29T06:36:11.940Z,21.30
2023-03-29T06:39:14.993Z,24.15
2023-03-29T06:42:21.496Z,27.13
2023-03-29T06:45:27.478Z,19.15
2023-03-29T06:48:32.243Z,21.37
2023-03-29T06:51:35.377Z,20.00
2023-03-29T06:54:39.226Z,15.02
2023-03-29T06:57:42.811Z,16.90
2023-03-29T07:00:46.048Z,15.20
2023-03-29T07:03:49.487Z,16.25
2023-03-29T07:07:01.819Z,13.83
2023-03-29T07:10:05.769Z,11.43
2023-03-29T07:13:14.644Z,13.13
2023-03-29T07:16:19.478Z,10.13
2023-03-29T07:19:24.536Z,8.25
2023-03-29T07:22:27.397Z,8.33
2023-03-29T07:25:31.534Z,10.40
2023-03-29T07:28:34.696Z,9.88
2023-03-29T07:31:41.091Z,9.93
2023-03-29T07:34:44.523Z,10.20
2023-03-29T07:37:50.975Z,11.70
2023-03-29T07:40:54.649Z,10.30
2023-03-29T07:43:59.240Z,9.82
2023-03-29T07:47:02.601Z,9.20
2023-03-29T07:50:07.770Z,10.23
2023-03-29T07:53:14.238Z,9.67
2023-03-29T07:56:20.926Z,9.45
2023-03-29T07:59:23.974Z,12.77
2023-03-29T08:02:27.558Z,11.57
2023-03-29T08:05:40.632Z,12.57
2023-03-29T08:08:45.125Z,8.97
2023-03-29T08:11:54.167Z,5.05
2023-03-29T08:14:59.896Z,7.20
2023-03-29T08:18:02.741Z,4.45
2023-03-29T08:21:08.878Z,7.95
2023-03-29T08:24:12.135Z,6.27
2023-03-29T08:27:14.979Z,7.43
2023-03-29T08:30:18.397Z,9.85
2023-03-29T08:33:21.452Z,7.32
2023-03-29T08:36:24.429Z,7.40
2023-03-29T08:39:27.958Z,6.30
2023-03-29T08:42:41.365Z,7.55
2023-03-29T08:46:14.096Z,5.57
2023-03-29T08:49:18.150Z,6.72
2023-03-29T08:52:31.806Z,8.05
2023-03-29T08:55:53.708Z,6.67
2023-03-29T08:58:58.117Z,5.28
2023-03-29T09:02:05.279Z,5.85
2023-03-29T09:05:14.932Z,6.35
2023-03-29T09:08:19.968Z,9.85
2023-03-29T09:11:24.652Z,7.60
2023-03-29T09:14:36.385Z,7.60
2023-03-29T09:17:51.345Z,8.30
2023-03-29T09:20:55.544Z,6.97
2023-03-29T09:24:17.850Z,9.05
2023-03-29T09:27:32.569Z,7.03
2023-03-29T09:30:41.906Z,6.45
2023-03-29T09:33:55.479Z,8.93
2023-03-29T09:37:01.334Z,5.60
2023-03-29T09:40:18.878Z,5.35
2023-03-29T09:43:42.231Z,8.07
2023-03-29T09:47:08.189Z,7.07
2023-03-29T09:50:38.204Z,5.82
2023-03-29T09:53:41.263Z,6.75
2023-03-29T09:56:44.335Z,8.52
2023-03-29T09:59:50.165Z,8.07
2023-03-29T10:02:54.837Z,7.00
2023-03-29T10:06:03.864Z,6.68
2023-03-29T10:09:15.295Z,7.25
2023-03-29T10:12:18.177Z,6.32
2023-03-29T10:15:29.703Z,7.27
2023-03-29T10:18:43.321Z,7.78
2023-03-29T10:21:53.125Z,7.47
2023-03-29T10:24:57.409Z,9.27
2023-03-29T10:28:06.978Z,6.40
2023-03-29T10:31:18.720Z,9.97
2023-03-29T10:34:26.320Z,7.05
2023-03-29T10:37:32.392Z,6.28
2023-03-29T10:40:43.232Z,7.82
2023-03-29T10:43:51.053Z,7.97
2023-03-29T10:46:54.014Z,7.17
2023-03-29T10:50:02.047Z,8.02
2023-03-29T10:53:26.724Z,8.30
2023-03-29T10:56:40.579Z,6.35
2023-03-29T10:59:54.281Z,6.32
2023-03-29T11:03:36.644Z,7.03
2023-03-29T11:06:47.630Z,5.60
2023-03-29T11:10:04.429Z,7.93
2023-03-29T11:13:25.226Z,7.40
2023-03-29T11:16:28.271Z,5.68
2023-03-29T11:19:54.856Z,7.43
2023-03-29T11:23:20.464Z,6.47
2023-03-29T11:26:27.430Z,6.20
2023-03-29T11:30:03.710Z,5.62
2023-03-29T11:33:19.249Z,6.55
2023-03-29T11:36:45.993Z,6.87
2023-03-29T11:40:10.782Z,5.68
2023-03-29T11:43:19.862Z,5.68
2023-03-29T11:46:36.006Z,6.45
2023-03-29T11:49:53.229Z,6.25
2023-03-29T11:53:03.643Z,5.90
2023-03-29T11:56:11.229Z,5.12
2023-03-29T11:59:22.663Z,5.82
2023-03-29T12:02:48.316Z,6.55
2023-03-29T12:05:56.848Z,6.95
2023-03-29T12:09:20.242Z,7.13
2023-03-29T12:12:46.497Z,6.30
2023-03-29T12:16:13.911Z,6.85
2023-03-29T12:19:32.227Z,5.97
2023-03-29T12:22:35.262Z,6.53
2023-03-29T12:25:54.518Z,5.17
2023-03-29T12:29:12.414Z,5.28
2023-03-29T12:32:20.560Z,7.75
2023-03-29T12:35:34.457Z,6.32
2023-03-29T12:38:38.023Z,7.65
2023-03-29T12:41:49.047Z,4.83
2023-03-29T12:44:58.763Z,3.78
2023-03-29T12:48:05.274Z,5.30
2023-03-29T12:51:13.038Z,5.30
2023-03-29T12:54:19.360Z,5.15
2023-03-29T12:57:40.093Z,5.57
2023-03-29T13:00:45.242Z,6.05
2023-03-29T13:03:50.202Z,5.85
2023-03-29T13:07:03.343Z,5.82
2023-03-29T13:10:10.709Z,6.85
2023-03-29T13:13:36.932Z,6.47
2023-03-29T13:16:41.346Z,6.03
2023-03-29T13:20:16.525Z,6.25
2023-03-29T13:23:34.521Z,4.95
2023-03-29T13:27:02.667Z,3.25
2023-03-29T13:30:38.167Z,2.93
2023-03-29T13:34:32.095Z,3.08
2023-03-29T13:37:53.249Z,2.92
2023-03-29T13:41:12.452Z,3.55
2023-03-29T13:44:27.392Z,2.22
2023-03-29T13:47:33.312Z,3.67
2023-03-29T13:50:39.315Z,3.10
2023-03-29T13:53:48.845Z,2.47
2023-03-29T13:57:08.181Z,3.97
2023-03-29T14:00:18.477Z,3.20
2023-03-29T14:03:30.195Z,2.47
2023-03-29T14:06:36.801Z,2.80
2023-03-29T14:09:44.180Z,4.20
2023-03-29T14:12:47.829Z,4.10
2023-03-29T14:16:04.973Z,3.03
2023-03-29T14:19:17.710Z,3.30
2023-03-29T14:22:21.771Z,2.87
2023-03-29T14:25:24.894Z,3.35
2023-03-29T14:28:29.256Z,4.37
2023-03-29T14:31:35.706Z,4.25
2023-03-29T14:34:40.870Z,3.57
2023-03-29T14:37:44.508Z,4.35
2023-03-29T14:40:47.356Z,3.10
2023-03-29T14:43:50.653Z,3.25
2023-03-29T14:46:55.277Z,4.47
2023-03-29T14:50:01.038Z,3.47
2023-03-29T14:53:04.296Z,3.55
2023-03-29T14:56:12.003Z,4.40
2023-03-29T14:59:37.987Z,3.05
2023-03-29T15:02:50.143Z,4.55
2023-03-29T15:05:58.726Z,3.60
2023-03-29T15:09:06.444Z,3.58
2023-03-29T15:12:15.697Z,5.05
2023-03-29T15:15:19.070Z,3.33
2023-03-29T15:18:27.321Z,4.05
2023-03-29T15:21:33.726Z,4.03
2023-03-29T15:24:44.518Z,4.20
2023-03-29T15:27:51.520Z,3.80
2023-03-29T15:31:08.225Z,3.78
2023-03-29T15:34:14.554Z,4.32
2023-03-29T15:37:17.494Z,4.23
2023-03-29T15:40:26.779Z,4.12
2023-03-29T15:43:31.157Z,4.45
2023-03-29T15:46:34.023Z,14.93
2023-03-29T15:49:37.114Z,7.30
2023-03-29T15:52:40.053Z,4.80
2023-03-29T15:55:45.792Z,4.57
2023-03-29T15:58:49.430Z,4.80
2023-03-29T16:01:54.709Z,4.55
2023-03-29T16:04:57.662Z,5.37
2023-03-29T16:08:00.665Z,4.47
2023-03-29T16:11:05.260Z,4.97
2023-03-29T16:14:25.483Z,4.12
2023-03-29T16:17:28.317Z,4.18
2023-03-29T16:20:31.772Z,5.90
2023-03-29T16:23:34.725Z,5.07
2023-03-29T16:26:39.420Z,4.70
2023-03-29T16:29:42.265Z,4.00
2023-03-29T16:32:45.197Z,3.42
2023-03-29T16:35:48.000Z,4.65
2023-03-29T16:38:51.976Z,4.67
2023-03-29T16:41:54.898Z,14.02
2023-03-29T16:44:57.678Z,10.30
2023-03-29T16:48:00.508Z,7.80
2023-03-29T16:51:04.795Z,6.43
2023-03-29T16:54:07.654Z,8.87
2023-03-29T16:57:10.622Z,14.32
2023-03-29T17:00:16.142Z,9.32
2023-03-29T17:03:19.517Z,7.05
2023-03-29T17:06:22.337Z,12.18
2023-03-29T17:09:26.199Z,8.47
2023-03-29T17:12:31.536Z,6.55
2023-03-29T17:15:37.419Z,10.10
2023-03-29T17:18:42.471Z,6.25
2023-03-29T17:21:45.676Z,7.57
2023-03-29T17:24:48.533Z,8.07
2023-03-29T17:27:54.648Z,7.78
2023-03-29T17:30:57.552Z,7.25
2023-03-29T17:34:00.634Z,7.22
2023-03-29T17:37:03.954Z,8.07
2023-03-29T17:40:14.303Z,7.50
2023-03-29T17:43:17.349Z,8.52
2023-03-29T17:46:23.165Z,7.30
2023-03-29T17:49:26.289Z,9.15
2023-03-29T17:55:32.523Z,15.37
2023-03-29T17:58:36.274Z,11.88
2023-03-29T18:01:39.520Z,11.00
2023-03-29T18:04:42.490Z,10.90
2023-03-29T18:07:45.403Z,17.45
2023-03-29T18:10:49.577Z,15.73
2023-03-29T18:13:53.726Z,13.95
2023-03-29T18:16:57.386Z,14.18
2023-03-29T18:20:00.896Z,14.82
2023-03-29T18:23:03.926Z,15.45
2023-03-29T18:26:09.205Z,15.10
2023-03-29T18:29:13.083Z,19.50
2023-03-29T18:32:16.941Z,12.68
2023-03-29T18:35:20.342Z,15.20
2023-03-29T18:38:24.063Z,15.85
2023-03-29T18:41:27.865Z,17.87
2023-03-29T18:44:31.213Z,16.83
2023-03-29T18:47:35.011Z,24.73
2023-03-29T18:50:39.032Z,23.12
2023-03-29T18:53:43.860Z,28.75
2023-03-29T18:56:47.294Z,37.03
2023-03-29T18:59:50.791Z,97.65
2023-03-29T19:02:54.073Z,37.13
2023-03-29T19:05:57.467Z,48.40
2023-03-29T19:09:05.483Z,46.63
2023-03-29T19:12:08.730Z,33.77
2023-03-29T19:15:14.494Z,44.38
2023-03-29T19:18:19.145Z,46.72
2023-03-29T19:21:22.584Z,46.15
2023-03-29T19:24:25.570Z,50.05
2023-03-29T19:27:28.628Z,40.57
2023-03-29T19:30:31.825Z,38.00
2023-03-29T19:33:35.239Z,30.25
2023-03-29T19:36:38.909Z,43.65
2023-03-29T19:39:42.117Z,36.85
2023-03-29T19:42:45.098Z,50.43
2023-03-29T19:45:49.890Z,51.42
2023-03-29T19:48:55.820Z,46.17
2023-03-29T19:51:58.875Z,46.20
2023-03-29T19:55:04.212Z,53.63
2023-03-29T19:58:09.275Z,59.47
2023-03-29T20:01:12.786Z,63.20
2023-03-29T20:04:19.176Z,62.40
2023-03-29T20:07:22.236Z,68.53
2023-03-29T20:10:25.012Z,53.63
2023-03-29T20:13:37.451Z,52.93
2023-03-29T20:16:43.665Z,46.88
2023-03-29T20:19:46.745Z,49.63
2023-03-29T20:22:50.281Z,41.20
2023-03-29T20:25:53.697Z,43.90
2023-03-29T20:28:56.770Z,40.83
2023-03-29T20:31:59.657Z,37.72
2023-03-29T20:35:02.635Z,40.42
2023-03-29T20:38:08.468Z,33.33
2023-03-29T20:41:11.328Z,38.35
2023-03-29T20:44:17.002Z,35.30
2023-03-29T20:47:20.205Z,40.38
2023-03-29T20:50:30.441Z,34.95
2023-03-29T20:53:34.599Z,35.38
2023-03-29T20:56:42.618Z,33.97
2023-03-29T20:59:46.527Z,34.40
2023-03-29T21:02:49.485Z,32.58
2023-03-29T21:05:55.872Z,36.47
2023-03-29T21:08:58.989Z,34.72
2023-03-29T21:12:02.395Z,35.92
2023-03-29T21:15:05.676Z,33.07
2023-03-29T21:18:09.117Z,29.87
2023-03-29T21:21:12.349Z,31.12
2023-03-29T21:24:15.405Z,31.48
2023-03-29T21:27:21.186Z,32.00
2023-03-29T21:30:24.050Z,30.40
2023-03-29T21:33:26.752Z,31.33
2023-03-29T21:36:29.708Z,30.42
2023-03-29T21:39:32.663Z,30.08
2023-03-29T21:42:35.760Z,26.58
2023-03-29T21:45:38.535Z,26.60
2023-03-29T21:48:42.143Z,24.95
2023-03-29T21:51:48.125Z,26.37
2023-03-29T21:54:51.013Z,27.02
2023-03-29T21:57:53.900Z,27.98
2023-03-29T22:01:05.490Z,23.60
2023-03-29T22:04:08.934Z,27.95
2023-03-29T22:07:12.640Z,29.45
2023-03-29T22:10:15.840Z,29.12
2023-03-29T22:13:18.756Z,30.13
2023-03-29T22:16:25.880Z,28.35
2023-03-29T22:19:32.129Z,27.17
2023-03-29T22:22:35.236Z,26.33
2023-03-29T22:25:38.207Z,24.77
2023-03-29T22:28:41.939Z,21.83
2023-03-29T22:31:44.709Z,26.17
2023-03-29T22:34:53.604Z,23.08
2023-03-29T22:37:56.492Z,22.73
2023-03-29T22:40:59.331Z,26.45
2023-03-29T22:44:05.173Z,35.67
2023-03-29T22:47:11.223Z,38.85
2023-03-29T22:50:17.490Z,32.70
2023-03-29T22:53:20.185Z,29.83
2023-03-29T22:56:23.502Z,33.22
2023-03-29T22:59:27.876Z,38.87
2023-03-29T23:02:30.884Z,57.08
2023-03-29T23:05:34.006Z,68.00
2023-03-29T23:08:37.046Z,51.53
2023-03-29T23:11:40.118Z,59.03
2023-03-29T23:14:43.093Z,38.53
2023-03-29T23:17:48.831Z,31.55
2023-03-29T23:20:54.966Z,27.92
2023-03-29T23:24:00.900Z,26.23
2023-03-29T23:27:05.238Z,29.10
2023-03-29T23:30:08.990Z,26.50
2023-03-29T23:33:11.935Z,25.33
2023-03-29T23:36:17.043Z,20.00
2023-03-29T23:39:19.792Z,18.52
2023-03-29T23:42:22.809Z,19.80
2023-03-29T23:45:29.860Z,19.93
2023-03-29T23:48:34.619Z,17.87
2023-03-29T23:51:39.335Z,17.12
2023-03-29T23:54:42.146Z,15.15
2023-03-29T23:57:44.979Z,13.10
